Time;durP1;ratioP1;P1;durP2;ratioP2;P2;SDS_P1;SDS_P2;PMS_P1;PMS_P2;Temp;Humidity;BMP_temperature;BMP_pressure;BME280_temperature;BME280_humidity;BME280_pressure;Samples;Min_cycle;Max_cycle;Signal;HPM_P1;HPM_P2
2022/07/19 00:01:44;;;;;;;2.43;1.90;;;22.00;80.20;;;;;;5117904;28;20219;-93
2022/07/19 00:04:10;;;;;;;7.47;1.80;;;22.00;80.70;;;;;;5115783;28;20450;-94
2022/07/19 00:06:36;;;;;;;4.97;1.73;;;21.90;80.90;;;;;;5116175;28;20251;-93
2022/07/19 00:09:03;;;;;;;4.67;1.80;;;21.90;81.10;;;;;;5115543;28;20453;-93
2022/07/19 00:11:29;;;;;;;2.77;1.83;;;21.90;81.50;;;;;;5118049;27;20427;-93
2022/07/19 00:13:55;;;;;;;2.77;1.67;;;21.80;81.50;;;;;;5115513;28;20426;-93
2022/07/19 00:16:20;;;;;;;3.43;1.97;;;21.80;81.60;;;;;;5115229;28;20200;-93
2022/07/19 00:18:47;;;;;;;3.20;2.00;;;21.80;81.10;;;;;;5116217;28;20299;-93
2022/07/19 00:21:12;;;;;;;3.83;2.07;;;21.70;80.90;;;;;;5115041;28;20260;-93
2022/07/19 00:23:38;;;;;;;3.43;1.60;;;21.60;80.90;;;;;;5117065;28;20729;-93
2022/07/19 00:26:04;;;;;;;5.87;2.20;;;21.60;81.00;;;;;;5119042;28;20168;-93
2022/07/19 00:28:30;;;;;;;2.43;1.80;;;21.50;81.50;;;;;;5116390;28;20532;-94
2022/07/19 00:30:56;;;;;;;6.73;2.17;;;21.50;82.20;;;;;;5115064;28;20448;-91
2022/07/19 00:33:21;;;;;;;2.77;1.93;;;21.40;82.40;;;;;;5114511;28;20212;-92
2022/07/19 00:35:47;;;;;;;5.03;2.47;;;21.40;82.30;;;;;;5116538;28;20164;-92
2022/07/19 00:38:14;;;;;;;2.97;1.67;;;21.40;82.40;;;;;;5115851;28;20286;-93
2022/07/19 00:40:41;;;;;;;7.60;1.90;;;21.30;82.60;;;;;;5115885;28;20628;-92
2022/07/19 00:43:08;;;;;;;2.97;1.87;;;21.30;82.80;;;;;;5114639;28;20475;-93
2022/07/19 00:45:34;;;;;;;2.57;1.83;;;21.20;82.80;;;;;;5114647;28;20408;-92
2022/07/19 00:48:00;;;;;;;3.10;1.93;;;21.20;82.90;;;;;;5116322;28;20795;-92
2022/07/19 00:50:26;;;;;;;6.93;2.20;;;21.20;83.40;;;;;;5114751;28;20477;-92
2022/07/19 00:52:55;;;;;;;2.17;1.97;;;21.10;83.30;;;;;;5114345;28;20459;-93
2022/07/19 00:55:23;;;;;;;2.70;1.63;;;21.10;83.30;;;;;;5114654;28;20429;-93
2022/07/19 00:57:49;;;;;;;3.83;2.20;;;21.00;83.50;;;;;;5113792;28;20478;-93
2022/07/19 01:00:17;;;;;;;2.20;1.83;;;21.00;83.50;;;;;;5115955;28;20427;-94
2022/07/19 01:02:43;;;;;;;2.10;1.70;;;20.90;83.50;;;;;;5115791;28;20428;-93
2022/07/19 01:05:11;;;;;;;2.73;1.80;;;20.90;83.40;;;;;;5115670;28;20423;-94
2022/07/19 01:07:38;;;;;;;2.33;2.10;;;20.80;83.80;;;;;;5115438;28;20485;-94
2022/07/19 01:10:06;;;;;;;3.00;2.07;;;20.80;83.50;;;;;;5116819;27;20412;-93
2022/07/19 01:12:35;;;;;;;2.67;2.13;;;20.80;83.50;;;;;;5115101;28;20994;-94
2022/07/19 01:15:11;;;;;;;4.87;1.50;;;20.80;83.70;;;;;;5114483;28;20504;-93
2022/07/19 01:17:36;;;;;;;5.03;1.83;;;20.70;83.50;;;;;;5114256;28;20462;-93
2022/07/19 01:20:03;;;;;;;5.60;2.43;;;20.70;83.10;;;;;;5115817;28;20422;-93
2022/07/19 01:22:29;;;;;;;4.17;2.10;;;20.60;83.20;;;;;;5115706;28;20205;-93
2022/07/19 01:24:54;;;;;;;4.70;2.03;;;20.50;83.40;;;;;;5115976;28;20784;-94
2022/07/19 01:27:20;;;;;;;4.10;1.90;;;20.50;83.60;;;;;;5115506;28;20424;-93
2022/07/19 01:29:46;;;;;;;7.40;2.40;;;20.40;83.70;;;;;;5116353;28;20281;-92
2022/07/19 01:32:11;;;;;;;2.20;1.93;;;20.40;83.70;;;;;;5117613;28;20250;-93
2022/07/19 01:34:37;;;;;;;4.00;1.77;;;20.40;83.70;;;;;;5115549;28;20209;-93
2022/07/19 01:37:03;;;;;;;2.10;1.83;;;20.30;83.50;;;;;;5114992;28;20211;-94
2022/07/19 01:39:29;;;;;;;6.63;2.57;;;20.30;83.50;;;;;;5114362;28;20640;-93
2022/07/19 01:41:55;;;;;;;3.83;2.20;;;20.30;83.70;;;;;;5114264;28;20191;-94
2022/07/19 01:44:20;;;;;;;2.87;1.90;;;20.20;83.70;;;;;;5116592;28;20450;-93
2022/07/19 01:46:46;;;;;;;2.77;1.80;;;20.20;83.90;;;;;;5116861;28;20229;-93
2022/07/19 01:49:12;;;;;;;3.43;2.10;;;20.20;84.00;;;;;;5116005;28;20532;-93
2022/07/19 01:51:37;;;;;;;5.90;2.03;;;20.10;83.90;;;;;;5115155;28;20191;-93
2022/07/19 01:54:03;;;;;;;10.60;2.57;;;20.10;83.70;;;;;;5115166;28;20176;-93
2022/07/19 01:56:29;;;;;;;4.37;2.30;;;20.10;83.80;;;;;;5115073;28;20193;-93
2022/07/19 01:58:54;;;;;;;4.17;2.27;;;20.10;83.70;;;;;;5113934;28;20217;-93
2022/07/19 02:01:20;;;;;;;4.30;2.40;;;20.00;83.70;;;;;;5114608;28;20220;-93
2022/07/19 02:03:46;;;;;;;2.67;2.07;;;20.00;83.70;;;;;;5114029;28;20189;-93
2022/07/19 02:06:11;;;;;;;4.20;2.13;;;20.00;83.70;;;;;;5113732;28;20189;-93
2022/07/19 02:08:38;;;;;;;4.40;2.20;;;19.90;83.50;;;;;;5114583;28;20282;-92
2022/07/19 02:11:34;;;;;;;4.27;1.80;;;19.90;83.50;;;;;;5117713;28;20703;-93
2022/07/19 02:13:50;;;;;;;4.93;1.70;;;19.90;83.40;;;;;;5119582;28;20427;-94
2022/07/19 02:16:16;;;;;;;3.10;2.20;;;19.90;83.50;;;;;;5118654;28;20402;-93
2022/07/19 02:18:41;;;;;;;3.13;1.60;;;19.80;83.60;;;;;;5118551;28;20219;-92
2022/07/19 02:21:07;;;;;;;7.23;2.17;;;19.80;84.20;;;;;;5118519;28;20174;-93
2022/07/19 02:23:33;;;;;;;5.30;1.80;;;19.80;84.60;;;;;;5117317;28;20211;-93
2022/07/19 02:25:58;;;;;;;3.40;2.00;;;19.70;84.80;;;;;;5117593;28;20209;-93
2022/07/19 02:28:24;;;;;;;2.73;2.00;;;19.70;85.00;;;;;;5119513;28;20563;-93
2022/07/19 02:30:50;;;;;;;7.23;2.00;;;19.70;85.10;;;;;;5118274;28;20550;-92
2022/07/19 02:33:16;;;;;;;1.73;1.63;;;19.70;85.20;;;;;;5118306;28;20602;-93
2022/07/19 02:35:41;;;;;;;2.30;1.67;;;19.70;85.10;;;;;;5118290;28;20312;-92
2022/07/19 02:38:07;;;;;;;3.50;2.10;;;19.60;85.10;;;;;;5117057;28;20256;-93
2022/07/19 02:40:33;;;;;;;2.60;2.13;;;19.60;85.10;;;;;;5117829;28;20173;-93
2022/07/19 02:42:58;;;;;;;3.20;1.87;;;19.60;84.90;;;;;;5118234;28;20198;-92
2022/07/19 02:45:24;;;;;;;3.40;2.63;;;19.60;84.80;;;;;;5117348;28;20556;-92
2022/07/19 02:47:50;;;;;;;4.63;2.50;;;19.60;84.90;;;;;;5116671;28;20290;-93
2022/07/19 02:50:15;;;;;;;3.23;1.80;;;19.60;85.00;;;;;;5117340;28;20171;-93
2022/07/19 02:52:41;;;;;;;3.03;1.37;;;19.50;85.10;;;;;;5117545;28;20721;-94
2022/07/19 02:55:07;;;;;;;3.50;2.20;;;19.50;85.10;;;;;;5117229;28;20278;-93
2022/07/19 02:57:33;;;;;;;2.23;2.03;;;19.40;85.00;;;;;;5116818;28;20259;-93
2022/07/19 02:59:59;;;;;;;2.17;1.83;;;19.40;84.80;;;;;;5116705;28;20423;-94
2022/07/19 03:02:24;;;;;;;6.07;1.90;;;19.40;85.00;;;;;;5116549;28;20291;-93
2022/07/19 03:04:50;;;;;;;6.00;2.47;;;19.40;85.10;;;;;;5118700;28;20179;-93
2022/07/19 03:07:16;;;;;;;1.97;1.77;;;19.40;85.30;;;;;;5120823;28;20231;-93
2022/07/19 03:09:43;;;;;;;2.13;1.83;;;19.40;85.30;;;;;;5118518;28;20540;-93
2022/07/19 03:12:08;;;;;;;3.10;1.63;;;19.40;85.10;;;;;;5117700;28;20458;-93
2022/07/19 03:14:34;;;;;;;3.10;2.37;;;19.40;84.90;;;;;;5120835;28;20261;-94
2022/07/19 03:17:00;;;;;;;3.90;2.20;;;19.40;85.00;;;;;;5118391;28;20223;-92
2022/07/19 03:19:26;;;;;;;4.10;2.20;;;19.40;84.90;;;;;;5117866;28;20227;-93
2022/07/19 03:21:53;;;;;;;3.20;2.40;;;19.40;84.90;;;;;;5116500;28;20664;-93
2022/07/19 03:24:19;;;;;;;4.07;1.90;;;19.50;85.00;;;;;;5116447;28;20503;-93
2022/07/19 03:26:44;;;;;;;5.53;2.10;;;19.40;85.00;;;;;;5116166;28;20524;-93
2022/07/19 03:29:10;;;;;;;3.97;1.80;;;19.40;85.20;;;;;;5117033;28;20196;-94
2022/07/19 03:31:36;;;;;;;27.00;12.07;;;19.50;85.30;;;;;;5116089;28;20198;-93
2022/07/19 03:34:03;;;;;;;19.27;10.50;;;19.50;85.30;;;;;;5116095;28;20208;-93
2022/07/19 03:36:28;;;;;;;10.17;6.13;;;19.50;84.90;;;;;;5115959;28;20454;-93
2022/07/19 03:38:56;;;;;;;2.87;1.80;;;19.50;84.70;;;;;;5115929;28;20485;-93
2022/07/19 03:41:22;;;;;;;4.10;2.10;;;19.50;84.50;;;;;;5117847;28;20197;-93
2022/07/19 03:43:47;;;;;;;3.00;1.90;;;19.50;84.30;;;;;;5116206;28;20442;-93
2022/07/19 03:46:13;;;;;;;2.07;1.70;;;19.50;84.20;;;;;;5116702;28;20260;-92
2022/07/19 03:48:39;;;;;;;4.10;2.30;;;19.50;84.30;;;;;;5116949;28;20174;-93
2022/07/19 03:51:05;;;;;;;2.00;1.60;;;19.60;84.40;;;;;;5115808;28;20227;-93
2022/07/19 03:53:31;;;;;;;5.33;2.20;;;19.60;84.20;;;;;;5117522;28;20661;-93
2022/07/19 03:55:56;;;;;;;2.33;1.87;;;19.60;84.30;;;;;;5117973;28;20405;-93
2022/07/19 03:58:22;;;;;;;4.97;1.80;;;19.60;84.20;;;;;;5117763;28;20218;-93
2022/07/19 04:00:48;;;;;;;6.20;2.20;;;19.60;83.90;;;;;;5116753;28;20169;-93
2022/07/19 04:03:14;;;;;;;6.67;1.87;;;19.60;84.00;;;;;;5116409;28;20186;-94
2022/07/19 04:05:39;;;;;;;3.40;1.90;;;19.60;84.10;;;;;;5115558;28;20178;-92
2022/07/19 04:08:05;;;;;;;4.10;2.13;;;19.60;84.30;;;;;;5114882;28;20236;-95
2022/07/19 04:10:31;;;;;;;6.07;2.23;;;19.70;84.60;;;;;;5116976;28;20612;-92
2022/07/19 04:12:56;;;;;;;200.13;107.30;;;19.70;84.60;;;;;;5115255;28;20301;-94
2022/07/19 04:15:22;;;;;;;29.67;14.07;;;19.70;84.60;;;;;;5116573;28;20662;-92
2022/07/19 04:17:47;;;;;;;8.97;5.03;;;19.80;84.50;;;;;;5116266;28;20678;-93
2022/07/19 04:20:13;;;;;;;5.00;2.70;;;19.80;84.50;;;;;;5116865;28;20175;-94
2022/07/19 04:22:39;;;;;;;7.97;2.80;;;19.80;84.70;;;;;;5117319;28;20245;-94
2022/07/19 04:25:05;;;;;;;4.93;2.43;;;19.90;85.00;;;;;;5115122;28;20180;-94
2022/07/19 04:27:31;;;;;;;3.50;1.90;;;19.90;85.00;;;;;;5116283;28;20719;-93
2022/07/19 04:29:57;;;;;;;5.63;2.30;;;19.90;85.30;;;;;;5115172;28;20422;-94
2022/07/19 04:32:23;;;;;;;4.60;2.30;;;20.00;85.50;;;;;;5114021;28;20221;-94
2022/07/19 04:34:49;;;;;;;2.20;1.90;;;20.00;85.50;;;;;;5116109;28;20434;-93
2022/07/19 04:37:15;;;;;;;3.53;2.00;;;20.00;85.30;;;;;;5115462;28;20222;-95
2022/07/19 04:39:41;;;;;;;2.27;1.80;;;20.10;85.30;;;;;;5115360;28;20801;-94
2022/07/19 04:42:07;;;;;;;3.87;2.60;;;20.10;85.20;;;;;;5114651;28;20462;-93
2022/07/19 04:44:34;;;;;;;3.57;1.70;;;20.20;85.10;;;;;;5116255;28;20497;-92
2022/07/19 04:47:00;;;;;;;3.10;1.87;;;20.20;85.20;;;;;;5114559;28;20487;-94
2022/07/19 04:49:25;;;;;;;2.27;1.93;;;20.30;85.50;;;;;;5116574;28;20956;-92
2022/07/19 04:51:51;;;;;;;2.30;1.80;;;20.30;86.10;;;;;;5114789;28;20464;-93
2022/07/19 04:54:17;;;;;;;2.53;1.70;;;20.40;85.30;;;;;;5115575;28;20186;-93
2022/07/19 04:56:44;;;;;;;4.67;2.67;;;20.50;85.20;;;;;;5113151;28;20196;-93
2022/07/19 04:59:09;;;;;;;5.90;2.40;;;20.50;85.20;;;;;;5113328;28;20708;-93
2022/07/19 05:01:35;;;;;;;4.63;2.33;;;20.60;85.10;;;;;;5114908;28;20420;-94
2022/07/19 05:04:01;;;;;;;7.10;2.07;;;20.70;85.10;;;;;;5114095;28;20180;-93
2022/07/19 05:06:27;;;;;;;2.37;1.93;;;20.70;85.10;;;;;;5113825;28;20249;-94
2022/07/19 05:08:53;;;;;;;7.23;2.50;;;20.80;85.20;;;;;;5115149;28;20207;-93
2022/07/19 05:11:20;;;;;;;2.23;2.03;;;20.90;85.10;;;;;;5114106;28;20225;-93
2022/07/19 05:13:45;;;;;;;6.00;2.00;;;21.00;84.90;;;;;;5113990;28;20478;-93
2022/07/19 05:16:11;;;;;;;2.10;1.90;;;21.00;84.70;;;;;;5114581;28;20411;-93
2022/07/19 05:18:37;;;;;;;2.40;2.03;;;21.10;84.70;;;;;;5118192;28;20241;-94
2022/07/19 05:21:03;;;;;;;5.00;1.90;;;21.20;84.80;;;;;;5113753;28;20210;-93
2022/07/19 05:23:28;;;;;;;7.03;1.90;;;21.30;84.80;;;;;;5114294;28;20176;-95
2022/07/19 05:25:54;;;;;;;2.47;1.90;;;21.40;84.60;;;;;;5102354;28;20177;-92
2022/07/19 05:28:20;;;;;;;3.50;1.93;;;21.40;84.60;;;;;;5105530;28;20196;-94
2022/07/19 05:30:46;;;;;;;2.57;2.00;;;21.50;84.50;;;;;;5096289;28;20201;-92
2022/07/19 05:33:11;;;;;;;2.40;1.80;;;21.60;84.40;;;;;;5106211;28;20198;-94
2022/07/19 05:35:38;;;;;;;2.17;1.83;;;21.70;84.20;;;;;;5093867;28;20183;-93
2022/07/19 05:38:04;;;;;;;2.20;2.00;;;21.80;83.90;;;;;;5097649;28;20212;-93
2022/07/19 05:40:29;;;;;;;1.80;1.70;;;21.90;83.80;;;;;;5102415;28;20528;-92
2022/07/19 05:42:55;;;;;;;3.30;1.73;;;21.90;83.20;;;;;;5106684;28;20436;-93
2022/07/19 05:45:21;;;;;;;4.70;2.13;;;22.00;83.00;;;;;;5115457;28;20184;-94
2022/07/19 05:47:47;;;;;;;3.80;2.20;;;22.10;82.80;;;;;;5097207;28;20502;-93
2022/07/19 05:50:12;;;;;;;2.93;1.50;;;22.20;82.30;;;;;;5114906;28;20180;-94
2022/07/19 05:52:38;;;;;;;4.20;1.80;;;22.30;82.40;;;;;;5115333;28;20195;-93
2022/07/19 05:55:06;;;;;;;3.23;1.60;;;22.30;81.80;;;;;;5116860;28;20695;-94
2022/07/19 05:57:31;;;;;;;2.30;1.73;;;22.40;81.90;;;;;;5102270;28;20243;-95
2022/07/19 05:59:57;;;;;;;1.57;1.47;;;22.60;81.60;;;;;;5107223;28;20467;-94
2022/07/19 06:02:24;;;;;;;2.40;1.60;;;22.60;81.10;;;;;;5099113;28;20212;-94
2022/07/19 06:04:49;;;;;;;2.90;1.70;;;22.80;81.30;;;;;;5108852;28;20439;-93
2022/07/19 06:07:15;;;;;;;2.63;2.17;;;22.90;80.10;;;;;;5095266;28;20464;-93
2022/07/19 06:09:41;;;;;;;2.67;2.00;;;23.00;79.20;;;;;;5097610;28;20187;-93
2022/07/19 06:12:06;;;;;;;2.23;2.03;;;23.10;79.50;;;;;;5112331;28;20191;-93
2022/07/19 06:14:32;;;;;;;2.93;1.80;;;23.20;79.60;;;;;;5108219;28;20184;-93
2022/07/19 06:16:59;;;;;;;2.53;1.67;;;23.30;78.60;;;;;;5093607;28;20204;-92
2022/07/19 06:19:26;;;;;;;4.50;1.73;;;23.40;78.20;;;;;;5093985;28;20197;-93
2022/07/19 06:21:52;;;;;;;2.57;1.77;;;23.50;78.20;;;;;;5094462;28;20439;-93
2022/07/19 06:24:19;;;;;;;6.60;1.63;;;23.70;77.90;;;;;;5094966;28;20521;-94
2022/07/19 06:26:44;;;;;;;3.23;1.80;;;23.80;77.40;;;;;;5094689;28;20512;-93
2022/07/19 06:29:10;;;;;;;2.23;1.40;;;23.90;77.40;;;;;;5096445;28;20517;-94
2022/07/19 06:31:36;;;;;;;2.10;1.70;;;24.00;76.00;;;;;;5113207;27;20209;-93
2022/07/19 06:34:02;;;;;;;40.93;24.47;;;24.20;75.80;;;;;;5107730;28;20437;-92
2022/07/19 06:36:28;;;;;;;5.73;4.03;;;24.30;75.00;;;;;;5128544;27;20191;-93
2022/07/19 06:38:54;;;;;;;11.13;7.70;;;24.40;74.10;;;;;;5095506;28;20273;-94
2022/07/19 06:41:19;;;;;;;3.00;2.20;;;24.60;75.00;;;;;;5098678;28;20419;-94
2022/07/19 06:43:45;;;;;;;1.77;1.67;;;24.70;75.10;;;;;;5114035;28;20439;-95
2022/07/19 06:46:11;;;;;;;2.00;1.23;;;24.90;75.20;;;;;;5108540;28;20371;-95
2022/07/19 06:48:37;;;;;;;4.30;1.80;;;25.00;73.20;;;;;;5101231;28;20253;-95
2022/07/19 06:51:06;;;;;;;1.63;1.53;;;25.20;72.70;;;;;;5092943;28;20531;-95
2022/07/19 06:53:32;;;;;;;2.27;1.60;;;25.40;72.10;;;;;;5100250;28;20432;-92
2022/07/19 06:55:57;;;;;;;1.20;1.13;;;25.50;72.00;;;;;;5103283;28;20528;-92
2022/07/19 06:58:23;;;;;;;2.77;1.50;;;25.70;70.70;;;;;;5110143;28;20225;-91
2022/07/19 07:00:51;;;;;;;2.20;1.57;;;25.90;70.00;;;;;;5110268;28;20188;-91
2022/07/19 07:03:18;;;;;;;1.90;1.73;;;26.10;69.40;;;;;;5099124;28;20440;-91
2022/07/19 07:05:45;;;;;;;3.90;1.50;;;26.20;68.40;;;;;;5105196;28;20424;-92
2022/07/19 07:08:10;;;;;;;5.40;1.30;;;26.40;68.40;;;;;;5101239;28;20464;-93
2022/07/19 07:10:37;;;;;;;6.50;1.50;;;26.50;66.90;;;;;;5104993;28;20460;-92
2022/07/19 07:13:02;;;;;;;3.17;1.60;;;26.70;67.50;;;;;;5105731;28;20188;-92
2022/07/19 07:15:28;;;;;;;1.57;1.47;;;26.90;66.80;;;;;;5101391;28;20432;-92
2022/07/19 07:17:55;;;;;;;2.20;1.37;;;27.00;66.60;;;;;;5103279;28;20244;-94
2022/07/19 07:20:20;;;;;;;3.57;1.67;;;27.20;66.20;;;;;;5109610;28;20360;-94
2022/07/19 07:22:46;;;;;;;2.30;1.23;;;27.30;65.80;;;;;;5101613;28;21008;-93
2022/07/19 07:25:12;;;;;;;1.43;1.33;;;27.40;64.90;;;;;;5109143;28;20184;-93
2022/07/19 07:27:38;;;;;;;3.47;1.73;;;27.50;65.10;;;;;;5105206;28;20245;-93
2022/07/19 07:30:05;;;;;;;3.93;1.50;;;27.60;64.60;;;;;;5096948;28;20420;-93
2022/07/19 07:32:31;;;;;;;4.80;1.80;;;27.80;65.60;;;;;;5102402;28;20505;-93
2022/07/19 07:34:57;;;;;;;1.87;1.57;;;27.90;64.80;;;;;;5104876;28;20425;-94
2022/07/19 07:37:22;;;;;;;2.83;1.47;;;28.00;64.60;;;;;;5098582;28;20213;-95
2022/07/19 07:39:48;;;;;;;2.20;1.17;;;28.10;64.60;;;;;;5100748;28;20228;-93
2022/07/19 07:42:14;;;;;;;2.33;1.50;;;28.20;63.60;;;;;;5099875;28;20227;-94
2022/07/19 07:44:41;;;;;;;3.50;1.30;;;28.30;62.90;;;;;;5098550;28;20637;-94
2022/07/19 07:47:08;;;;;;;1.03;1.00;;;28.40;62.80;;;;;;5119294;27;20460;-94
2022/07/19 07:49:35;;;;;;;2.70;1.23;;;28.50;62.50;;;;;;5101041;28;20514;-95
2022/07/19 07:52:00;;;;;;;1.40;1.30;;;28.60;62.50;;;;;;5108276;28;20444;-94
2022/07/19 07:54:26;;;;;;;1.37;1.20;;;28.70;63.10;;;;;;5099746;28;20494;-93
2022/07/19 07:57:13;;;;;;;3.03;1.40;;;28.80;63.50;;;;;;5103295;28;20198;-93
2022/07/19 07:59:39;;;;;;;1.97;1.57;;;28.90;62.50;;;;;;5109215;28;20201;-94
2022/07/19 08:02:05;;;;;;;1.90;1.53;;;29.00;60.80;;;;;;5096618;28;20801;-94
2022/07/19 08:04:31;;;;;;;2.53;1.40;;;29.00;62.20;;;;;;5101769;28;20479;-93
2022/07/19 08:06:56;;;;;;;1.63;1.43;;;29.10;62.10;;;;;;5110432;28;20237;-92
2022/07/19 08:09:22;;;;;;;2.37;1.20;;;29.20;61.80;;;;;;5096799;28;20181;-93
2022/07/19 08:11:48;;;;;;;2.73;1.43;;;29.30;61.80;;;;;;5101592;28;20258;-93
2022/07/19 08:14:14;;;;;;;1.60;1.30;;;29.40;61.10;;;;;;5093036;28;20235;-94
2022/07/19 08:16:40;;;;;;;1.83;1.67;;;29.40;60.60;;;;;;5092644;28;20460;-94
2022/07/19 08:19:06;;;;;;;1.73;1.30;;;29.50;60.60;;;;;;5104812;28;20483;-95
2022/07/19 08:21:32;;;;;;;1.43;1.30;;;29.50;60.50;;;;;;5094603;28;20943;-94
2022/07/19 08:23:57;;;;;;;1.90;1.30;;;29.60;60.80;;;;;;5100306;28;20185;-94
2022/07/19 08:26:23;;;;;;;5.30;1.50;;;29.70;61.70;;;;;;5104500;28;20206;-94
2022/07/19 08:28:49;;;;;;;2.83;1.67;;;29.70;60.70;;;;;;5106773;28;20189;-93
2022/07/19 08:31:15;;;;;;;1.67;1.50;;;29.80;60.80;;;;;;5113022;27;20514;-94
2022/07/19 08:33:41;;;;;;;3.80;2.38;;;29.90;61.20;;;;;;5103388;28;20414;-95
2022/07/19 08:36:09;;;;;;;1.97;1.87;;;30.00;60.60;;;;;;5095008;28;20189;-95
2022/07/19 08:38:35;;;;;;;15.10;8.50;;;30.10;60.30;;;;;;5103022;28;20480;-95
2022/07/19 08:41:01;;;;;;;2.83;1.40;;;30.20;59.80;;;;;;5101927;28;20423;-94
2022/07/19 08:43:27;;;;;;;3.33;1.50;;;30.30;60.80;;;;;;5100232;28;20435;-95
2022/07/19 08:45:53;;;;;;;1.60;1.47;;;30.30;59.80;;;;;;5111353;28;20423;-93
2022/07/19 08:48:20;;;;;;;1.80;1.60;;;30.40;60.30;;;;;;5106506;28;20194;-95
2022/07/19 08:50:52;;;;;;;1.37;1.10;;;30.40;61.80;;;;;;5108385;28;20459;-93
2022/07/19 08:53:18;;;;;;;1.70;1.30;;;30.50;60.00;;;;;;5105558;28;20452;-94
2022/07/19 08:55:44;;;;;;;1.97;1.40;;;30.60;60.90;;;;;;5095498;28;20427;-93
2022/07/19 08:58:09;;;;;;;1.93;1.50;;;30.60;63.00;;;;;;5123099;27;20473;-94
2022/07/19 09:00:35;;;;;;;7.63;1.63;;;30.60;64.20;;;;;;5099481;28;20190;-93
2022/07/19 09:03:04;;;;;;;8.40;1.57;;;30.60;64.30;;;;;;5106347;28;20607;-94
2022/07/19 09:05:31;;;;;;;2.63;1.23;;;30.60;65.30;;;;;;5104548;28;20184;-94
2022/07/19 09:08:08;;;;;;;4.03;1.37;;;30.60;61.60;;;;;;5108421;28;20478;-94
2022/07/19 09:10:37;;;;;;;2.73;0.93;;;30.70;63.60;;;;;;5108267;28;20438;-94
2022/07/19 09:13:07;;;;;;;1.43;0.90;;;30.80;60.50;;;;;;5097686;28;20443;-94
2022/07/19 09:15:54;;;;;;;1.87;1.10;;;31.00;60.00;;;;;;5106142;28;20489;-95
2022/07/19 09:18:25;;;;;;;1.10;1.00;;;31.10;59.90;;;;;;5098356;28;20482;-94
2022/07/19 09:21:02;;;;;;;1.50;1.20;;;31.20;62.60;;;;;;5103444;28;20473;-95
2022/07/19 09:23:29;;;;;;;1.50;1.40;;;31.30;59.30;;;;;;5100950;28;21127;-95
2022/07/19 09:25:57;;;;;;;1.83;1.10;;;31.40;59.60;;;;;;5096632;28;21025;-95
2022/07/19 09:28:25;;;;;;;1.97;1.33;;;31.40;58.90;;;;;;5100627;28;20453;-95
2022/07/19 09:30:54;;;;;;;1.20;1.10;;;31.50;60.20;;;;;;5096298;28;20528;-95
2022/07/19 09:33:21;;;;;;;1.40;1.27;;;31.60;60.80;;;;;;5098234;28;20540;-94
2022/07/19 09:35:58;;;;;;;2.00;1.50;;;31.60;60.70;;;;;;5100018;28;20871;-94
2022/07/19 09:38:29;;;;;;;3.27;1.33;;;31.60;63.30;;;;;;5106759;28;20480;-93
2022/07/19 09:41:08;;;;;;;1.67;1.30;;;31.60;60.50;;;;;;5101181;28;20416;-94
2022/07/19 09:43:52;;;;;;;1.43;1.17;;;31.70;60.70;;;;;;5094143;28;20439;-95
2022/07/19 09:46:35;;;;;;;4.50;1.47;;;31.80;63.00;;;;;;5104643;28;20465;-93
2022/07/19 09:49:08;;;;;;;2.60;1.23;;;31.80;64.10;;;;;;5094602;28;20532;-95
2022/07/19 09:51:42;;;;;;;3.23;1.23;;;31.80;61.70;;;;;;5095430;28;20453;-94
2022/07/19 09:54:10;;;;;;;1.20;1.10;;;31.80;59.70;;;;;;5098286;28;20467;-94
2022/07/19 09:56:38;;;;;;;1.40;1.30;;;31.90;59.90;;;;;;5096745;28;20516;-95
2022/07/19 09:59:05;;;;;;;1.33;1.17;;;31.80;57.90;;;;;;5101566;28;20488;-95
2022/07/19 10:01:32;;;;;;;1.93;1.13;;;31.90;58.60;;;;;;5106932;28;20483;-95
2022/07/19 10:04:16;;;;;;;1.90;1.20;;;31.90;59.90;;;;;;5100890;28;20444;-95
2022/07/19 10:06:44;;;;;;;1.10;1.10;;;32.00;59.10;;;;;;5101918;28;20472;-93
2022/07/19 10:09:12;;;;;;;1.60;1.00;;;32.00;58.00;;;;;;5100407;28;20447;-94
2022/07/19 10:11:39;;;;;;;1.90;1.17;;;32.00;57.40;;;;;;5110634;28;20507;-93
2022/07/19 10:14:05;;;;;;;2.83;1.30;;;31.90;56.70;;;;;;5109908;28;20812;-94
2022/07/19 10:17:10;;;;;;;1.40;1.30;;;32.00;57.20;;;;;;5101752;28;20448;-95
2022/07/19 10:19:44;;;;;;;2.47;1.13;;;31.90;56.70;;;;;;5064027;28;20185;-95
2022/07/19 10:22:24;;;;;;;1.40;1.30;;;31.80;56.40;;;;;;5101047;28;20534;-95
2022/07/19 10:24:58;;;;;;;1.30;1.20;;;31.70;56.40;;;;;;5103035;28;20918;-95
2022/07/19 10:27:24;;;;;;;1.93;1.43;;;31.60;56.70;;;;;;5106623;28;20455;-93
2022/07/19 10:29:56;;;;;;;2.03;1.50;;;31.60;57.00;;;;;;5103157;28;20436;-94
2022/07/19 10:32:31;;;;;;;2.30;1.33;;;31.60;58.90;;;;;;5116313;28;20236;-95
2022/07/19 10:35:28;;;;;;;0.97;0.90;;;31.70;58.80;;;;;;5108519;28;20765;-94
2022/07/19 10:38:01;;;;;;;1.30;1.20;;;31.80;59.10;;;;;;5110392;28;20475;-95
2022/07/19 10:40:49;;;;;;;1.20;1.10;;;31.80;59.50;;;;;;5113430;28;21022;-95
2022/07/19 10:43:22;;;;;;;1.37;1.27;;;31.90;58.30;;;;;;5110227;28;20477;-95
2022/07/19 10:46:00;;;;;;;5.70;2.50;;;31.90;57.30;;;;;;5107665;28;20799;-94
2022/07/19 10:48:47;;;;;;;1.43;1.33;;;31.90;57.40;;;;;;5098430;28;20449;-94
2022/07/19 10:51:28;;;;;;;1.40;1.30;;;32.00;57.90;;;;;;5101990;28;20501;-93
2022/07/19 10:53:56;;;;;;;1.80;1.60;;;32.10;60.10;;;;;;5113473;28;20416;-95
2022/07/19 10:56:27;;;;;;;1.90;1.70;;;32.00;61.30;;;;;;5104078;28;20440;-94
2022/07/19 10:58:59;;;;;;;1.43;1.33;;;32.10;58.60;;;;;;5110070;28;21158;-91
2022/07/19 11:01:27;;;;;;;1.50;1.40;;;32.20;58.70;;;;;;5100065;28;20460;-93
2022/07/19 11:03:54;;;;;;;2.20;1.40;;;32.20;58.00;;;;;;5106946;28;20444;-91
2022/07/19 11:06:25;;;;;;;1.77;1.10;;;32.30;59.80;;;;;;5104281;28;20443;-90
2022/07/19 11:09:00;;;;;;;1.40;1.30;;;32.30;59.00;;;;;;5099617;28;20474;-94
2022/07/19 11:11:26;;;;;;;1.33;1.23;;;32.30;60.40;;;;;;5096667;28;20480;-91
2022/07/19 11:13:59;;;;;;;2.20;1.37;;;32.30;61.20;;;;;;5104412;28;20517;-96
2022/07/19 11:16:26;;;;;;;9.20;1.53;;;32.30;57.30;;;;;;5100751;28;20231;-95
2022/07/19 11:19:01;;;;;;;1.60;1.33;;;32.40;57.60;;;;;;5102808;27;20544;-94
2022/07/19 11:21:32;;;;;;;1.57;1.20;;;32.40;57.00;;;;;;5111448;28;20450;-93
2022/07/19 11:23:58;;;;;;;1.60;1.50;;;32.40;56.80;;;;;;5107138;28;20480;-92
2022/07/19 11:26:24;;;;;;;1.77;1.03;;;32.30;55.80;;;;;;5111152;28;20531;-95
2022/07/19 11:28:50;;;;;;;1.47;1.37;;;32.20;56.00;;;;;;5099458;28;20860;-93
2022/07/19 11:31:24;;;;;;;1.20;1.10;;;32.20;56.60;;;;;;5098812;28;20445;-93
2022/07/19 11:33:56;;;;;;;2.00;1.60;;;32.20;56.70;;;;;;5093908;28;20448;-95
2022/07/19 11:36:22;;;;;;;1.37;1.20;;;32.10;56.10;;;;;;5102680;28;20852;-94
2022/07/19 11:38:51;;;;;;;1.53;1.43;;;32.10;56.30;;;;;;5109249;28;20507;-95
2022/07/19 11:41:18;;;;;;;1.60;1.50;;;32.20;56.90;;;;;;5109434;28;20990;-94
2022/07/19 11:43:51;;;;;;;2.00;1.50;;;32.20;59.30;;;;;;5108897;28;20444;-94
2022/07/19 11:46:17;;;;;;;1.10;1.00;;;32.30;60.10;;;;;;5101984;28;20520;-92
2022/07/19 11:48:43;;;;;;;1.30;1.20;;;32.20;61.00;;;;;;5098370;28;20468;-89
2022/07/19 11:51:10;;;;;;;1.50;1.40;;;32.30;57.50;;;;;;5094789;28;20835;-90
2022/07/19 11:53:40;;;;;;;3.30;1.50;;;32.40;57.40;;;;;;5095995;28;20204;-92
2022/07/19 11:56:20;;;;;;;8.80;1.70;;;32.50;56.70;;;;;;5107298;28;20944;-93
2022/07/19 11:58:46;;;;;;;1.20;1.10;;;32.50;56.10;;;;;;5097564;28;20487;-92
2022/07/19 12:01:12;;;;;;;1.20;1.10;;;32.60;55.70;;;;;;5101330;28;20420;-95
2022/07/19 12:03:38;;;;;;;1.30;1.20;;;32.60;56.20;;;;;;5106675;28;20316;-95
2022/07/19 12:06:06;;;;;;;1.20;1.07;;;32.60;55.90;;;;;;5097033;28;20507;-96
2022/07/19 12:08:38;;;;;;;1.23;1.13;;;32.60;56.90;;;;;;5104687;28;20231;-95
2022/07/19 12:11:16;;;;;;;1.17;1.07;;;32.70;56.40;;;;;;5103730;28;20416;-96
2022/07/19 12:13:48;;;;;;;2.10;1.80;;;32.80;56.60;;;;;;5133916;27;20451;-92
2022/07/19 12:16:14;;;;;;;6.63;5.80;;;32.90;56.50;;;;;;5106364;28;20424;-91
2022/07/19 12:18:53;;;;;;;3.60;2.77;;;32.90;55.90;;;;;;5113531;28;20564;-96
2022/07/19 12:21:40;;;;;;;1.70;1.60;;;33.00;56.20;;;;;;5105643;28;20196;-91
2022/07/19 12:24:17;;;;;;;1.20;1.10;;;33.00;57.10;;;;;;5115624;28;20420;-93
2022/07/19 12:26:55;;;;;;;1.40;1.30;;;33.10;57.50;;;;;;5119984;28;20503;-93
2022/07/19 12:29:35;;;;;;;1.30;1.20;;;33.10;58.70;;;;;;5119237;28;20459;-95
2022/07/19 12:32:12;;;;;;;11.23;10.03;;;33.00;59.70;;;;;;5109272;28;20498;-93
2022/07/19 12:34:57;;;;;;;17.40;15.60;;;33.00;56.70;;;;;;5098488;28;20949;-95
2022/07/19 12:37:41;;;;;;;6.10;4.93;;;33.10;55.90;;;;;;5100347;28;20445;-95
2022/07/19 12:40:24;;;;;;;4.17;2.70;;;33.10;57.40;;;;;;5104483;28;20440;-94
2022/07/19 12:43:03;;;;;;;1.40;1.30;;;33.10;59.30;;;;;;5098122;28;20977;-96
2022/07/19 12:45:43;;;;;;;100.85;8.15;;;33.10;56.10;;;;;;5101074;28;20433;-94
2022/07/19 12:48:13;;;;;;;4.33;3.27;;;33.10;56.90;;;;;;5108730;28;20211;-94
2022/07/19 12:50:40;;;;;;;3.57;2.27;;;33.10;56.40;;;;;;5108215;28;20445;-94